sensor_id;sensor_type;location;lat;lon;timestamp;P1;durP1;ratioP1;P2;durP2;ratioP2
317;SDS011;146;53.448;10.228;2023-04-15T00:00:20;6.83;;;6.13;;
317;SDS011;146;53.448;10.228;2023-04-15T00:02:48;6.33;;;5.73;;
317;SDS011;146;53.448;10.228;2023-04-15T00:05:15;5.77;;;5.17;;
317;SDS011;146;53.448;10.228;2023-04-15T00:07:42;6.50;;;5.90;;
317;SDS011;146;53.448;10.228;2023-04-15T00:10:10;5.30;;;4.67;;
317;SDS011;146;53.448;10.228;2023-04-15T00:12:36;6.13;;;5.53;;
317;SDS011;146;53.448;10.228;2023-04-15T00:15:03;5.73;;;5.17;;
317;SDS011;146;53.448;10.228;2023-04-15T00:17:32;5.90;;;5.20;;
317;SDS011;146;53.448;10.228;2023-04-15T00:20:00;5.97;;;5.37;;
317;SDS011;146;53.448;10.228;2023-04-15T00:22:27;6.53;;;5.83;;
317;SDS011;146;53.448;10.228;2023-04-15T00:24:54;6.53;;;5.87;;
317;SDS011;146;53.448;10.228;2023-04-15T00:27:21;6.67;;;6.00;;
317;SDS011;146;53.448;10.228;2023-04-15T00:29:48;6.97;;;6.30;;
317;SDS011;146;53.448;10.228;2023-04-15T00:32:15;9.23;;;8.37;;
317;SDS011;146;53.448;10.228;2023-04-15T00:34:42;11.87;;;10.23;;
317;SDS011;146;53.448;10.228;2023-04-15T00:37:10;8.93;;;8.07;;
317;SDS011;146;53.448;10.228;2023-04-15T00:39:36;7.40;;;6.60;;
317;SDS011;146;53.448;10.228;2023-04-15T00:42:04;7.43;;;6.77;;
317;SDS011;146;53.448;10.228;2023-04-15T00:44:31;7.97;;;6.67;;
317;SDS011;146;53.448;10.228;2023-04-15T00:46:59;8.03;;;5.83;;
317;SDS011;146;53.448;10.228;2023-04-15T00:49:25;7.40;;;6.63;;
317;SDS011;146;53.448;10.228;2023-04-15T00:51:54;6.30;;;5.70;;
317;SDS011;146;53.448;10.228;2023-04-15T00:54:22;8.90;;;6.03;;
317;SDS011;146;53.448;10.228;2023-04-15T00:56:49;7.97;;;5.97;;
317;SDS011;146;53.448;10.228;2023-04-15T00:59:16;5.63;;;5.13;;
317;SDS011;146;53.448;10.228;2023-04-15T01:01:43;6.10;;;5.50;;
317;SDS011;146;53.448;10.228;2023-04-15T01:04:11;7.53;;;5.40;;
317;SDS011;146;53.448;10.228;2023-04-15T01:06:39;6.20;;;5.00;;
317;SDS011;146;53.448;10.228;2023-04-15T01:09:05;5.80;;;5.00;;
317;SDS011;146;53.448;10.228;2023-04-15T01:11:34;5.23;;;4.73;;
317;SDS011;146;53.448;10.228;2023-04-15T01:14:01;5.10;;;4.60;;
317;SDS011;146;53.448;10.228;2023-04-15T01:16:28;5.50;;;4.90;;
317;SDS011;146;53.448;10.228;2023-04-15T01:18:55;6.77;;;5.30;;
317;SDS011;146;53.448;10.228;2023-04-15T01:21:22;5.30;;;4.80;;
317;SDS011;146;53.448;10.228;2023-04-15T01:23:48;5.60;;;5.03;;
317;SDS011;146;53.448;10.228;2023-04-15T01:26:19;5.93;;;5.30;;
317;SDS011;146;53.448;10.228;2023-04-15T01:28:47;6.43;;;5.83;;
317;SDS011;146;53.448;10.228;2023-04-15T01:31:14;7.70;;;5.20;;
317;SDS011;146;53.448;10.228;2023-04-15T01:33:42;4.97;;;4.57;;
317;SDS011;146;53.448;10.228;2023-04-15T01:36:09;6.50;;;5.47;;
317;SDS011;146;53.448;10.228;2023-04-15T01:38:36;5.87;;;5.30;;
317;SDS011;146;53.448;10.228;2023-04-15T01:41:03;6.17;;;5.40;;
317;SDS011;146;53.448;10.228;2023-04-15T01:43:33;8.07;;;5.87;;
317;SDS011;146;53.448;10.228;2023-04-15T01:46:00;6.70;;;5.30;;
317;SDS011;146;53.448;10.228;2023-04-15T01:48:26;5.63;;;5.00;;
317;SDS011;146;53.448;10.228;2023-04-15T01:50:53;6.77;;;5.40;;
317;SDS011;146;53.448;10.228;2023-04-15T01:53:21;5.80;;;5.20;;
317;SDS011;146;53.448;10.228;2023-04-15T01:55:49;5.80;;;5.20;;
317;SDS011;146;53.448;10.228;2023-04-15T01:58:16;6.13;;;5.53;;
317;SDS011;146;53.448;10.228;2023-04-15T02:00:44;5.60;;;5.10;;
317;SDS011;146;53.448;10.228;2023-04-15T02:03:11;6.37;;;5.60;;
317;SDS011;146;53.448;10.228;2023-04-15T02:05:38;7.17;;;5.57;;
317;SDS011;146;53.448;10.228;2023-04-15T02:08:05;7.00;;;5.90;;
317;SDS011;146;53.448;10.228;2023-04-15T02:10:32;6.80;;;5.43;;
317;SDS011;146;53.448;10.228;2023-04-15T02:12:59;7.33;;;5.60;;
317;SDS011;146;53.448;10.228;2023-04-15T02:15:26;7.67;;;6.67;;
317;SDS011;146;53.448;10.228;2023-04-15T02:17:54;8.40;;;6.83;;
317;SDS011;146;53.448;10.228;2023-04-15T02:20:21;8.40;;;6.80;;
317;SDS011;146;53.448;10.228;2023-04-15T02:22:48;7.60;;;6.80;;
317;SDS011;146;53.448;10.228;2023-04-15T02:25:15;8.53;;;7.13;;
317;SDS011;146;53.448;10.228;2023-04-15T02:27:42;8.83;;;6.90;;
317;SDS011;146;53.448;10.228;2023-04-15T02:30:09;8.13;;;6.80;;
317;SDS011;146;53.448;10.228;2023-04-15T02:32:37;9.00;;;6.67;;
317;SDS011;146;53.448;10.228;2023-04-15T02:35:06;9.50;;;7.07;;
317;SDS011;146;53.448;10.228;2023-04-15T02:37:34;11.40;;;7.80;;
317;SDS011;146;53.448;10.228;2023-04-15T02:40:06;9.87;;;7.37;;
317;SDS011;146;53.448;10.228;2023-04-15T02:42:34;9.60;;;8.00;;
317;SDS011;146;53.448;10.228;2023-04-15T02:45:00;9.63;;;8.07;;
317;SDS011;146;53.448;10.228;2023-04-15T02:47:27;13.37;;;9.20;;
317;SDS011;146;53.448;10.228;2023-04-15T02:49:54;10.90;;;8.87;;
317;SDS011;146;53.448;10.228;2023-04-15T02:52:24;10.27;;;8.17;;
317;SDS011;146;53.448;10.228;2023-04-15T02:54:50;11.10;;;8.13;;
317;SDS011;146;53.448;10.228;2023-04-15T02:57:17;10.47;;;8.37;;
317;SDS011;146;53.448;10.228;2023-04-15T02:59:44;10.63;;;8.50;;
317;SDS011;146;53.448;10.228;2023-04-15T03:02:11;14.83;;;9.70;;
317;SDS011;146;53.448;10.228;2023-04-15T03:04:38;14.27;;;8.80;;
317;SDS011;146;53.448;10.228;2023-04-15T03:07:05;11.67;;;8.70;;
317;SDS011;146;53.448;10.228;2023-04-15T03:09:33;10.73;;;9.20;;
317;SDS011;146;53.448;10.228;2023-04-15T03:12:00;14.03;;;9.00;;
317;SDS011;146;53.448;10.228;2023-04-15T03:14:27;14.83;;;9.60;;
317;SDS011;146;53.448;10.228;2023-04-15T03:16:54;12.50;;;9.70;;
317;SDS011;146;53.448;10.228;2023-04-15T03:19:23;17.00;;;9.07;;
317;SDS011;146;53.448;10.228;2023-04-15T03:21:50;12.87;;;10.40;;
317;SDS011;146;53.448;10.228;2023-04-15T03:24:17;14.47;;;11.53;;
317;SDS011;146;53.448;10.228;2023-04-15T03:26:45;17.17;;;11.00;;
317;SDS011;146;53.448;10.228;2023-04-15T03:29:12;15.70;;;10.77;;
317;SDS011;146;53.448;10.228;2023-04-15T03:31:41;16.07;;;10.90;;
317;SDS011;146;53.448;10.228;2023-04-15T03:34:08;16.67;;;11.07;;
317;SDS011;146;53.448;10.228;2023-04-15T03:36:35;18.40;;;11.67;;
317;SDS011;146;53.448;10.228;2023-04-15T03:39:01;16.00;;;11.23;;
317;SDS011;146;53.448;10.228;2023-04-15T03:41:28;22.43;;;12.17;;
317;SDS011;146;53.448;10.228;2023-04-15T03:43:58;14.20;;;11.10;;
317;SDS011;146;53.448;10.228;2023-04-15T03:46:25;14.83;;;11.13;;
317;SDS011;146;53.448;10.228;2023-04-15T03:48:51;14.93;;;10.37;;
317;SDS011;146;53.448;10.228;2023-04-15T03:51:18;15.43;;;10.20;;
317;SDS011;146;53.448;10.228;2023-04-15T03:53:45;17.90;;;12.20;;
317;SDS011;146;53.448;10.228;2023-04-15T03:56:12;18.40;;;11.40;;
317;SDS011;146;53.448;10.228;2023-04-15T03:58:39;14.43;;;10.57;;
317;SDS011;146;53.448;10.228;2023-04-15T04:01:07;16.73;;;10.53;;
317;SDS011;146;53.448;10.228;2023-04-15T04:03:34;14.33;;;9.87;;
317;SDS011;146;53.448;10.228;2023-04-15T04:06:01;13.90;;;9.63;;
317;SDS011;146;53.448;10.228;2023-04-15T04:08:28;18.40;;;11.07;;
317;SDS011;146;53.448;10.228;2023-04-15T04:10:55;14.20;;;10.27;;
317;SDS011;146;53.448;10.228;2023-04-15T04:13:22;15.60;;;10.50;;
317;SDS011;146;53.448;10.228;2023-04-15T04:15:49;15.43;;;9.40;;
317;SDS011;146;53.448;10.228;2023-04-15T04:18:17;13.80;;;10.77;;
317;SDS011;146;53.448;10.228;2023-04-15T04:20:43;13.90;;;10.80;;
317;SDS011;146;53.448;10.228;2023-04-15T04:23:10;16.10;;;10.47;;
317;SDS011;146;53.448;10.228;2023-04-15T04:25:37;20.17;;;11.20;;
317;SDS011;146;53.448;10.228;2023-04-15T04:28:04;14.50;;;10.60;;
317;SDS011;146;53.448;10.228;2023-04-15T04:30:31;20.43;;;12.00;;
317;SDS011;146;53.448;10.228;2023-04-15T04:32:57;20.27;;;12.87;;
317;SDS011;146;53.448;10.228;2023-04-15T04:35:26;18.70;;;13.23;;
317;SDS011;146;53.448;10.228;2023-04-15T04:37:52;21.47;;;14.60;;
317;SDS011;146;53.448;10.228;2023-04-15T04:40:20;23.33;;;14.83;;
317;SDS011;146;53.448;10.228;2023-04-15T04:42:46;25.60;;;15.93;;
317;SDS011;146;53.448;10.228;2023-04-15T04:45:13;27.40;;;16.13;;
317;SDS011;146;53.448;10.228;2023-04-15T04:47:40;28.73;;;16.97;;
317;SDS011;146;53.448;10.228;2023-04-15T04:50:07;27.57;;;16.90;;
317;SDS011;146;53.448;10.228;2023-04-15T04:52:36;23.47;;;16.83;;
317;SDS011;146;53.448;10.228;2023-04-15T04:55:03;26.73;;;17.20;;
317;SDS011;146;53.448;10.228;2023-04-15T04:57:30;26.50;;;18.23;;
317;SDS011;146;53.448;10.228;2023-04-15T04:59:57;29.43;;;17.70;;
317;SDS011;146;53.448;10.228;2023-04-15T05:02:24;29.07;;;19.00;;
317;SDS011;146;53.448;10.228;2023-04-15T05:04:52;33.57;;;19.07;;
317;SDS011;146;53.448;10.228;2023-04-15T05:07:19;29.63;;;17.90;;
317;SDS011;146;53.448;10.228;2023-04-15T05:09:47;32.13;;;19.20;;
317;SDS011;146;53.448;10.228;2023-04-15T05:12:14;33.60;;;19.30;;
317;SDS011;146;53.448;10.228;2023-04-15T05:14:42;33.23;;;20.23;;
317;SDS011;146;53.448;10.228;2023-04-15T05:17:10;27.43;;;19.63;;
317;SDS011;146;53.448;10.228;2023-04-15T05:19:38;35.00;;;21.17;;
317;SDS011;146;53.448;10.228;2023-04-15T05:22:04;35.73;;;19.90;;
317;SDS011;146;53.448;10.228;2023-04-15T05:24:31;39.27;;;21.43;;
317;SDS011;146;53.448;10.228;2023-04-15T05:26:59;34.93;;;21.37;;
317;SDS011;146;53.448;10.228;2023-04-15T05:29:26;41.50;;;23.27;;
317;SDS011;146;53.448;10.228;2023-04-15T05:31:53;40.73;;;24.10;;
317;SDS011;146;53.448;10.228;2023-04-15T05:34:20;34.67;;;23.40;;
317;SDS011;146;53.448;10.228;2023-04-15T05:36:47;35.57;;;24.00;;
317;SDS011;146;53.448;10.228;2023-04-15T05:48:42;41.17;;;27.17;;
317;SDS011;146;53.448;10.228;2023-04-15T05:51:09;40.57;;;24.73;;
317;SDS011;146;53.448;10.228;2023-04-15T05:53:39;47.10;;;26.93;;
317;SDS011;146;53.448;10.228;2023-04-15T05:56:06;40.57;;;25.50;;
317;SDS011;146;53.448;10.228;2023-04-15T05:58:33;45.30;;;25.67;;
317;SDS011;146;53.448;10.228;2023-04-15T06:01:21;41.97;;;27.87;;
317;SDS011;146;53.448;10.228;2023-04-15T06:03:58;44.00;;;27.20;;
317;SDS011;146;53.448;10.228;2023-04-15T06:06:27;39.70;;;27.80;;
317;SDS011;146;53.448;10.228;2023-04-15T06:09:12;45.57;;;28.60;;
317;SDS011;146;53.448;10.228;2023-04-15T06:11:38;49.97;;;30.27;;
317;SDS011;146;53.448;10.228;2023-04-15T06:14:06;49.17;;;30.10;;
317;SDS011;146;53.448;10.228;2023-04-15T06:16:33;53.23;;;28.70;;
317;SDS011;146;53.448;10.228;2023-04-15T06:19:01;49.00;;;28.60;;
317;SDS011;146;53.448;10.228;2023-04-15T06:21:28;47.63;;;30.00;;
317;SDS011;146;53.448;10.228;2023-04-15T06:23:55;47.17;;;28.83;;
317;SDS011;146;53.448;10.228;2023-04-15T06:26:23;55.17;;;31.30;;
317;SDS011;146;53.448;10.228;2023-04-15T06:28:50;48.07;;;29.70;;
317;SDS011;146;53.448;10.228;2023-04-15T06:31:17;47.17;;;29.33;;
317;SDS011;146;53.448;10.228;2023-04-15T06:33:44;46.87;;;27.77;;
317;SDS011;146;53.448;10.228;2023-04-15T06:36:30;47.40;;;29.80;;
317;SDS011;146;53.448;10.228;2023-04-15T06:38:58;52.23;;;29.83;;
317;SDS011;146;53.448;10.228;2023-04-15T06:41:25;45.83;;;31.17;;
317;SDS011;146;53.448;10.228;2023-04-15T06:43:52;50.87;;;29.60;;
317;SDS011;146;53.448;10.228;2023-04-15T06:46:19;58.27;;;33.90;;
317;SDS011;146;53.448;10.228;2023-04-15T06:48:46;51.47;;;31.90;;
317;SDS011;146;53.448;10.228;2023-04-15T06:51:13;45.83;;;27.90;;
317;SDS011;146;53.448;10.228;2023-04-15T06:53:41;48.57;;;30.47;;
317;SDS011;146;53.448;10.228;2023-04-15T06:56:08;48.57;;;31.13;;
317;SDS011;146;53.448;10.228;2023-04-15T06:58:35;49.70;;;29.40;;
317;SDS011;146;53.448;10.228;2023-04-15T07:01:02;48.40;;;29.43;;
317;SDS011;146;53.448;10.228;2023-04-15T07:03:29;48.13;;;29.50;;
317;SDS011;146;53.448;10.228;2023-04-15T07:05:56;53.90;;;29.57;;
317;SDS011;146;53.448;10.228;2023-04-15T07:08:23;57.10;;;31.27;;
317;SDS011;146;53.448;10.228;2023-04-15T07:10:51;41.00;;;28.20;;
317;SDS011;146;53.448;10.228;2023-04-15T07:13:19;46.70;;;30.20;;
317;SDS011;146;53.448;10.228;2023-04-15T07:15:45;49.90;;;31.57;;
317;SDS011;146;53.448;10.228;2023-04-15T07:18:12;53.67;;;31.20;;
317;SDS011;146;53.448;10.228;2023-04-15T07:20:40;55.57;;;32.77;;
317;SDS011;146;53.448;10.228;2023-04-15T07:23:06;56.03;;;32.70;;
317;SDS011;146;53.448;10.228;2023-04-15T07:25:33;52.80;;;30.97;;
317;SDS011;146;53.448;10.228;2023-04-15T07:28:02;56.27;;;30.50;;
317;SDS011;146;53.448;10.228;2023-04-15T07:30:29;49.40;;;30.77;;
317;SDS011;146;53.448;10.228;2023-04-15T07:32:56;48.50;;;30.10;;
317;SDS011;146;53.448;10.228;2023-04-15T07:35:23;45.07;;;29.13;;
317;SDS011;146;53.448;10.228;2023-04-15T07:37:50;49.50;;;29.23;;
317;SDS011;146;53.448;10.228;2023-04-15T07:40:17;49.90;;;31.57;;
317;SDS011;146;53.448;10.228;2023-04-15T07:42:44;47.23;;;29.40;;
317;SDS011;146;53.448;10.228;2023-04-15T07:45:14;43.53;;;28.40;;
317;SDS011;146;53.448;10.228;2023-04-15T07:47:41;47.43;;;30.53;;
317;SDS011;146;53.448;10.228;2023-04-15T07:50:08;50.77;;;32.93;;
317;SDS011;146;53.448;10.228;2023-04-15T07:52:35;55.40;;;32.47;;
317;SDS011;146;53.448;10.228;2023-04-15T07:55:03;50.97;;;33.30;;
317;SDS011;146;53.448;10.228;2023-04-15T07:57:31;45.80;;;31.97;;
317;SDS011;146;53.448;10.228;2023-04-15T07:59:58;55.10;;;34.87;;
317;SDS011;146;53.448;10.228;2023-04-15T08:02:27;54.20;;;34.33;;
317;SDS011;146;53.448;10.228;2023-04-15T08:04:54;53.27;;;30.93;;
317;SDS011;146;53.448;10.228;2023-04-15T08:07:21;49.47;;;31.40;;
317;SDS011;146;53.448;10.228;2023-04-15T08:09:49;51.00;;;32.47;;
317;SDS011;146;53.448;10.228;2023-04-15T08:12:16;50.90;;;31.40;;
317;SDS011;146;53.448;10.228;2023-04-15T08:14:43;47.03;;;30.83;;
317;SDS011;146;53.448;10.228;2023-04-15T08:17:10;49.50;;;32.80;;
317;SDS011;146;53.448;10.228;2023-04-15T08:19:38;52.40;;;33.30;;
317;SDS011;146;53.448;10.228;2023-04-15T08:22:06;52.27;;;31.43;;
317;SDS011;146;53.448;10.228;2023-04-15T08:24:33;47.30;;;31.57;;
317;SDS011;146;53.448;10.228;2023-04-15T08:27:00;50.10;;;33.77;;
317;SDS011;146;53.448;10.228;2023-04-15T08:29:28;50.30;;;33.30;;
317;SDS011;146;53.448;10.228;2023-04-15T08:31:55;53.30;;;34.10;;
317;SDS011;146;53.448;10.228;2023-04-15T08:34:22;48.53;;;30.07;;
317;SDS011;146;53.448;10.228;2023-04-15T08:36:50;50.00;;;34.40;;
317;SDS011;146;53.448;10.228;2023-04-15T08:39:17;47.90;;;31.80;;
317;SDS011;146;53.448;10.228;2023-04-15T08:41:44;45.80;;;30.77;;
317;SDS011;146;53.448;10.228;2023-04-15T08:44:12;48.33;;;32.90;;
317;SDS011;146;53.448;10.228;2023-04-15T08:46:40;50.60;;;31.60;;
317;SDS011;146;53.448;10.228;2023-04-15T08:49:09;52.40;;;33.47;;
317;SDS011;146;53.448;10.228;2023-04-15T08:51:38;48.87;;;32.77;;
317;SDS011;146;53.448;10.228;2023-04-15T08:54:07;49.07;;;31.13;;
317;SDS011;146;53.448;10.228;2023-04-15T08:56:35;51.43;;;32.80;;
317;SDS011;146;53.448;10.228;2023-04-15T08:59:04;45.70;;;32.33;;
317;SDS011;146;53.448;10.228;2023-04-15T09:01:32;51.50;;;32.37;;
317;SDS011;146;53.448;10.228;2023-04-15T09:03:59;46.83;;;31.70;;
317;SDS011;146;53.448;10.228;2023-04-15T09:06:30;48.40;;;31.13;;
317;SDS011;146;53.448;10.228;2023-04-15T09:08:57;42.10;;;30.43;;
317;SDS011;146;53.448;10.228;2023-04-15T09:11:25;44.90;;;29.93;;
317;SDS011;146;53.448;10.228;2023-04-15T09:13:52;39.20;;;29.27;;
317;SDS011;146;53.448;10.228;2023-04-15T09:16:18;38.57;;;28.23;;
317;SDS011;146;53.448;10.228;2023-04-15T09:18:45;43.90;;;31.20;;
317;SDS011;146;53.448;10.228;2023-04-15T09:21:13;42.47;;;28.00;;
317;SDS011;146;53.448;10.228;2023-04-15T09:23:40;41.83;;;28.10;;
317;SDS011;146;53.448;10.228;2023-04-15T09:26:28;48.20;;;28.87;;
317;SDS011;146;53.448;10.228;2023-04-15T09:29:01;37.53;;;28.57;;
317;SDS011;146;53.448;10.228;2023-04-15T09:31:30;39.13;;;29.00;;
317;SDS011;146;53.448;10.228;2023-04-15T09:33:57;41.40;;;28.13;;
317;SDS011;146;53.448;10.228;2023-04-15T09:36:24;39.27;;;28.83;;
317;SDS011;146;53.448;10.228;2023-04-15T09:38:54;46.93;;;29.30;;
317;SDS011;146;53.448;10.228;2023-04-15T09:41:21;37.80;;;27.10;;
317;SDS011;146;53.448;10.228;2023-04-15T09:43:50;35.67;;;27.50;;
317;SDS011;146;53.448;10.228;2023-04-15T09:46:17;34.70;;;26.07;;
317;SDS011;146;53.448;10.228;2023-04-15T09:48:45;33.67;;;26.10;;
317;SDS011;146;53.448;10.228;2023-04-15T09:51:12;29.57;;;23.57;;
317;SDS011;146;53.448;10.228;2023-04-15T09:53:39;27.87;;;22.33;;
317;SDS011;146;53.448;10.228;2023-04-15T09:56:06;32.00;;;24.07;;
317;SDS011;146;53.448;10.228;2023-04-15T09:58:34;33.60;;;24.47;;
317;SDS011;146;53.448;10.228;2023-04-15T10:01:04;27.17;;;22.27;;
317;SDS011;146;53.448;10.228;2023-04-15T10:03:32;30.60;;;24.30;;
317;SDS011;146;53.448;10.228;2023-04-15T10:06:00;26.70;;;22.23;;
317;SDS011;146;53.448;10.228;2023-04-15T10:08:30;28.87;;;22.30;;
317;SDS011;146;53.448;10.228;2023-04-15T10:10:59;25.63;;;20.97;;
317;SDS011;146;53.448;10.228;2023-04-15T10:13:28;26.37;;;21.93;;
317;SDS011;146;53.448;10.228;2023-04-15T10:15:59;24.43;;;21.53;;
317;SDS011;146;53.448;10.228;2023-04-15T10:18:33;26.10;;;21.50;;
317;SDS011;146;53.448;10.228;2023-04-15T10:21:01;23.97;;;20.30;;
317;SDS011;146;53.448;10.228;2023-04-15T10:23:28;23.60;;;20.13;;
317;SDS011;146;53.448;10.228;2023-04-15T10:25:55;26.03;;;21.40;;
317;SDS011;146;53.448;10.228;2023-04-15T10:28:23;23.50;;;20.90;;
317;SDS011;146;53.448;10.228;2023-04-15T10:30:52;23.90;;;20.07;;
317;SDS011;146;53.448;10.228;2023-04-15T10:33:20;22.73;;;18.97;;
317;SDS011;146;53.448;10.228;2023-04-15T10:35:50;22.60;;;18.13;;
317;SDS011;146;53.448;10.228;2023-04-15T10:38:30;21.17;;;18.60;;
317;SDS011;146;53.448;10.228;2023-04-15T10:41:10;19.90;;;16.77;;
317;SDS011;146;53.448;10.228;2023-04-15T10:43:48;21.67;;;18.27;;
317;SDS011;146;53.448;10.228;2023-04-15T10:46:23;20.00;;;17.83;;
317;SDS011;146;53.448;10.228;2023-04-15T10:49:05;20.17;;;18.17;;
317;SDS011;146;53.448;10.228;2023-04-15T10:51:36;21.13;;;18.23;;
317;SDS011;146;53.448;10.228;2023-04-15T10:54:07;18.37;;;16.47;;
317;SDS011;146;53.448;10.228;2023-04-15T10:56:40;20.60;;;17.10;;
317;SDS011;146;53.448;10.228;2023-04-15T10:59:07;19.23;;;17.23;;
317;SDS011;146;53.448;10.228;2023-04-15T11:01:50;19.70;;;17.60;;
317;SDS011;146;53.448;10.228;2023-04-15T11:07:36;18.23;;;16.33;;
317;SDS011;146;53.448;10.228;2023-04-15T11:13:20;19.40;;;17.40;;
317;SDS011;146;53.448;10.228;2023-04-15T11:15:49;18.83;;;16.93;;
317;SDS011;146;53.448;10.228;2023-04-15T11:18:21;18.17;;;16.00;;
317;SDS011;146;53.448;10.228;2023-04-15T11:20:50;18.50;;;16.60;;
317;SDS011;146;53.448;10.228;2023-04-15T11:23:26;16.53;;;14.90;;
317;SDS011;146;53.448;10.228;2023-04-15T11:25:54;18.60;;;16.70;;
317;SDS011;146;53.448;10.228;2023-04-15T11:28:24;17.63;;;15.10;;
317;SDS011;146;53.448;10.228;2023-04-15T11:30:51;16.57;;;14.80;;
317;SDS011;146;53.448;10.228;2023-04-15T11:33:19;17.70;;;16.00;;
317;SDS011;146;53.448;10.228;2023-04-15T11:35:47;19.00;;;17.10;;
317;SDS011;146;53.448;10.228;2023-04-15T11:38:14;17.50;;;15.80;;
317;SDS011;146;53.448;10.228;2023-04-15T11:40:43;17.53;;;15.80;;
317;SDS011;146;53.448;10.228;2023-04-15T11:43:10;16.80;;;15.20;;
317;SDS011;146;53.448;10.228;2023-04-15T11:45:46;20.67;;;17.63;;
317;SDS011;146;53.448;10.228;2023-04-15T11:48:15;16.87;;;15.20;;
317;SDS011;146;53.448;10.228;2023-04-15T11:50:43;18.10;;;16.17;;
317;SDS011;146;53.448;10.228;2023-04-15T11:53:10;18.70;;;17.00;;
317;SDS011;146;53.448;10.228;2023-04-15T11:55:45;20.00;;;17.43;;
317;SDS011;146;53.448;10.228;2023-04-15T11:58:13;17.27;;;15.67;;
317;SDS011;146;53.448;10.228;2023-04-15T12:00:45;19.13;;;17.10;;
317;SDS011;146;53.448;10.228;2023-04-15T12:03:17;19.07;;;17.00;;
317;SDS011;146;53.448;10.228;2023-04-15T12:06:04;17.03;;;15.33;;
317;SDS011;146;53.448;10.228;2023-04-15T12:08:54;17.10;;;15.50;;
317;SDS011;146;53.448;10.228;2023-04-15T12:11:39;17.33;;;15.57;;
317;SDS011;146;53.448;10.228;2023-04-15T12:14:08;16.97;;;15.40;;
317;SDS011;146;53.448;10.228;2023-04-15T12:16:47;16.93;;;15.23;;
317;SDS011;146;53.448;10.228;2023-04-15T12:19:15;17.47;;;15.73;;
317;SDS011;146;53.448;10.228;2023-04-15T12:21:47;18.27;;;15.00;;
317;SDS011;146;53.448;10.228;2023-04-15T12:24:14;16.07;;;13.77;;
317;SDS011;146;53.448;10.228;2023-04-15T12:26:46;17.27;;;15.67;;
317;SDS011;146;53.448;10.228;2023-04-15T12:29:15;15.93;;;14.33;;
317;SDS011;146;53.448;10.228;2023-04-15T12:31:49;15.23;;;13.63;;
317;SDS011;146;53.448;10.228;2023-04-15T12:34:17;15.30;;;13.90;;
317;SDS011;146;53.448;10.228;2023-04-15T12:36:50;15.10;;;13.80;;
317;SDS011;146;53.448;10.228;2023-04-15T12:39:20;15.30;;;13.80;;
317;SDS011;146;53.448;10.228;2023-04-15T12:41:49;14.63;;;13.33;;
317;SDS011;146;53.448;10.228;2023-04-15T12:44:16;15.90;;;14.50;;
317;SDS011;146;53.448;10.228;2023-04-15T12:46:44;15.03;;;13.63;;
317;SDS011;146;53.448;10.228;2023-04-15T12:49:10;15.13;;;13.70;;
317;SDS011;146;53.448;10.228;2023-04-15T12:51:38;15.20;;;13.87;;
317;SDS011;146;53.448;10.228;2023-04-15T12:54:05;14.10;;;12.90;;
317;SDS011;146;53.448;10.228;2023-04-15T12:56:32;13.23;;;12.10;;
317;SDS011;146;53.448;10.228;2023-04-15T12:59:00;13.53;;;12.27;;
317;SDS011;146;53.448;10.228;2023-04-15T13:01:27;12.60;;;11.40;;
317;SDS011;146;53.448;10.228;2023-04-15T13:03:54;14.80;;;13.50;;
317;SDS011;146;53.448;10.228;2023-04-15T13:06:21;13.30;;;12.00;;
317;SDS011;146;53.448;10.228;2023-04-15T13:08:48;13.47;;;12.27;;
317;SDS011;146;53.448;10.228;2023-04-15T13:11:18;14.03;;;12.70;;
317;SDS011;146;53.448;10.228;2023-04-15T13:13:45;14.83;;;13.43;;
317;SDS011;146;53.448;10.228;2023-04-15T13:16:13;15.40;;;13.97;;
317;SDS011;146;53.448;10.228;2023-04-15T13:18:40;16.03;;;14.53;;
317;SDS011;146;53.448;10.228;2023-04-15T13:21:07;14.67;;;13.47;;
317;SDS011;146;53.448;10.228;2023-04-15T13:23:34;14.50;;;13.27;;
317;SDS011;146;53.448;10.228;2023-04-15T13:26:01;14.70;;;13.40;;
317;SDS011;146;53.448;10.228;2023-04-15T13:28:28;13.90;;;12.70;;
317;SDS011;146;53.448;10.228;2023-04-15T13:30:55;14.30;;;13.10;;
317;SDS011;146;53.448;10.228;2023-04-15T13:33:23;15.80;;;14.20;;
317;SDS011;146;53.448;10.228;2023-04-15T13:35:50;16.87;;;15.17;;
317;SDS011;146;53.448;10.228;2023-04-15T13:38:17;15.30;;;13.80;;
317;SDS011;146;53.448;10.228;2023-04-15T13:40:44;14.60;;;13.20;;
317;SDS011;146;53.448;10.228;2023-04-15T13:43:11;14.67;;;13.37;;
317;SDS011;146;53.448;10.228;2023-04-15T13:45:38;13.30;;;12.20;;
317;SDS011;146;53.448;10.228;2023-04-15T13:48:05;14.53;;;13.23;;
317;SDS011;146;53.448;10.228;2023-04-15T13:50:33;14.00;;;12.80;;
317;SDS011;146;53.448;10.228;2023-04-15T13:53:00;15.60;;;13.97;;
317;SDS011;146;53.448;10.228;2023-04-15T13:55:27;14.33;;;13.00;;
317;SDS011;146;53.448;10.228;2023-04-15T13:57:55;13.30;;;12.10;;
317;SDS011;146;53.448;10.228;2023-04-15T14:00:21;13.80;;;12.50;;
317;SDS011;146;53.448;10.228;2023-04-15T14:02:48;12.97;;;11.73;;
317;SDS011;146;53.448;10.228;2023-04-15T14:05:15;13.83;;;12.60;;
317;SDS011;146;53.448;10.228;2023-04-15T14:07:44;13.30;;;12.00;;
317;SDS011;146;53.448;10.228;2023-04-15T14:10:10;14.23;;;12.67;;
317;SDS011;146;53.448;10.228;2023-04-15T14:12:37;11.60;;;10.50;;
317;SDS011;146;53.448;10.228;2023-04-15T14:15:04;12.00;;;10.90;;
317;SDS011;146;53.448;10.228;2023-04-15T14:17:32;12.60;;;11.17;;
317;SDS011;146;53.448;10.228;2023-04-15T14:19:59;11.63;;;10.60;;
317;SDS011;146;53.448;10.228;2023-04-15T14:22:25;11.60;;;10.60;;
317;SDS011;146;53.448;10.228;2023-04-15T14:24:54;10.87;;;9.87;;
317;SDS011;146;53.448;10.228;2023-04-15T14:27:20;12.53;;;11.47;;
317;SDS011;146;53.448;10.228;2023-04-15T14:29:48;11.83;;;10.73;;
317;SDS011;146;53.448;10.228;2023-04-15T14:32:15;11.13;;;10.13;;
317;SDS011;146;53.448;10.228;2023-04-15T14:34:41;11.40;;;10.47;;
317;SDS011;146;53.448;10.228;2023-04-15T14:37:08;12.40;;;11.17;;
317;SDS011;146;53.448;10.228;2023-04-15T14:39:35;11.43;;;10.33;;
317;SDS011;146;53.448;10.228;2023-04-15T14:42:03;12.63;;;11.10;;
317;SDS011;146;53.448;10.228;2023-04-15T14:44:30;11.73;;;10.70;;
317;SDS011;146;53.448;10.228;2023-04-15T14:46:57;12.10;;;11.00;;
317;SDS011;146;53.448;10.228;2023-04-15T14:49:24;12.50;;;11.30;;
317;SDS011;146;53.448;10.228;2023-04-15T14:51:51;11.97;;;10.77;;
317;SDS011;146;53.448;10.228;2023-04-15T14:54:17;11.40;;;10.20;;
317;SDS011;146;53.448;10.228;2023-04-15T14:56:44;10.87;;;9.80;;
317;SDS011;146;53.448;10.228;2023-04-15T14:59:12;10.87;;;9.87;;
317;SDS011;146;53.448;10.228;2023-04-15T15:01:39;11.77;;;10.70;;
317;SDS011;146;53.448;10.228;2023-04-15T15:04:06;10.90;;;10.00;;
317;SDS011;146;53.448;10.228;2023-04-15T15:06:34;12.80;;;11.70;;
317;SDS011;146;53.448;10.228;2023-04-15T15:09:01;10.13;;;9.17;;
317;SDS011;146;53.448;10.228;2023-04-15T15:11:28;11.80;;;10.67;;
317;SDS011;146;53.448;10.228;2023-04-15T15:13:55;12.37;;;11.27;;
317;SDS011;146;53.448;10.228;2023-04-15T15:16:24;11.43;;;10.33;;
317;SDS011;146;53.448;10.228;2023-04-15T15:18:50;11.57;;;10.30;;
317;SDS011;146;53.448;10.228;2023-04-15T15:21:17;12.20;;;11.10;;
317;SDS011;146;53.448;10.228;2023-04-15T15:23:44;12.00;;;11.00;;
317;SDS011;146;53.448;10.228;2023-04-15T15:26:12;12.27;;;11.17;;
317;SDS011;146;53.448;10.228;2023-04-15T15:28:39;11.90;;;10.90;;